Hauptseite
METAR-TAF:

METAR-TAF

Flughäfen :

Flughafen Essex County

Caldwell, New Jersey, Vereinigte Staaten

Breite: 40-52-35N, Länge: 074-16-59W, Höhe: 52 m

Beobachtung

Neuester Wetterbericht von vor 22 Minuten, um 01:53 UTC
Wind 7 kt aus West/Nordwest
Temperatur 4°C
Luftfeuchtigkeit 48%
Luftdruck 1019 hPa
Sichtweite: 16.1 km
Himmel klar

METAR: KCDW 160153Z 30007KT 10SM CLR 04/M06 A3010 RMK AO2 SLP200 T00391061

Zeit: 21:15 (02:15 UTC)


TAF: fehlend

Wetterbeobachtungen und Prognosen von mehr als 4000 Flughäfen (METAR und TAF Bericht).

Die verfügbaren Stationen werden durch gelbe und rote Markierungen auf der Karte dargestellt.

Führen Sie die Maus auf sie, um den Namen der Station zu sehen.

Darauf klicken, um die Beobachtung von Wetterbeobachtungen und Prognosen zu sehen.

Um die Karte zu ändern : klicken Sie auf den grünen Tasten mit einem schwarzen Kreuz Zum Vergrößern, auf den grünen Button mit einem Gedankenstrich zu verkleinern, oder auf die grünen Pfeile für benachbarte Karten.


METAR-TAF: